createdAt,value
2018-08-23T00:00:47.134Z,26.10
2018-08-23T00:04:49.350Z,26.10
2018-08-23T00:08:51.869Z,26.10
2018-08-23T00:12:58.430Z,25.20
2018-08-23T00:17:00.602Z,24.90
2018-08-23T00:21:03.747Z,25.00
2018-08-23T00:25:06.026Z,25.30
2018-08-23T00:29:13.902Z,25.50
2018-08-23T00:33:16.079Z,25.60
2018-08-23T00:37:18.303Z,25.60
2018-08-23T00:41:20.485Z,26.20
2018-08-23T00:45:22.660Z,26.30
2018-08-23T00:49:29.566Z,26.30
2018-08-23T00:53:32.987Z,26.20
2018-08-23T00:57:35.559Z,26.10
2018-08-23T01:01:37.740Z,26.00
2018-08-23T01:05:40.017Z,25.90
2018-08-23T01:09:44.074Z,25.80
2018-08-23T01:13:46.375Z,25.40
2018-08-23T01:17:53.202Z,24.70
2018-08-23T01:21:55.403Z,23.40
2018-08-23T01:25:57.570Z,23.50
2018-08-23T01:29:59.845Z,24.60
2018-08-23T01:34:02.018Z,25.10
2018-08-23T01:38:04.191Z,25.20
2018-08-23T01:42:06.444Z,25.20
2018-08-23T01:46:08.640Z,25.10
2018-08-23T01:50:11.571Z,24.90
2018-08-23T01:54:13.881Z,24.80
2018-08-23T01:58:16.550Z,24.80
2018-08-23T02:02:18.703Z,24.60
2018-08-23T02:06:20.927Z,24.50
2018-08-23T02:10:23.225Z,24.20
2018-08-23T02:14:25.634Z,24.30
2018-08-23T02:18:27.809Z,24.40
2018-08-23T02:22:30.122Z,24.20
2018-08-23T02:26:32.343Z,24.20
2018-08-23T02:30:49.179Z,24.10
2018-08-23T02:34:55.583Z,24.20
2018-08-23T02:38:59.923Z,24.20
2018-08-23T02:43:02.159Z,24.10
2018-08-23T02:47:04.403Z,24.00
2018-08-23T02:51:06.596Z,23.30
2018-08-23T02:55:08.779Z,23.30
2018-08-23T02:59:10.966Z,23.70
2018-08-23T03:03:13.296Z,23.80
2018-08-23T03:07:15.585Z,23.70
2018-08-23T03:11:17.747Z,23.60
2018-08-23T03:15:24.467Z,23.50
2018-08-23T03:19:26.637Z,23.40
2018-08-23T03:23:28.776Z,23.20
2018-08-23T03:27:31.279Z,23.20
2018-08-23T03:31:33.415Z,23.20
2018-08-23T03:35:35.610Z,23.10
2018-08-23T03:39:37.755Z,23.10
2018-08-23T03:43:40.052Z,23.10
2018-08-23T03:47:47.896Z,23.00
2018-08-23T03:51:50.167Z,23.00
2018-08-23T03:56:06.777Z,23.00
2018-08-23T04:00:09.147Z,22.90
2018-08-23T04:04:11.351Z,22.80
2018-08-23T04:08:13.540Z,22.30
2018-08-23T04:12:15.695Z,22.50
2018-08-23T04:16:24.147Z,22.70
2018-08-23T04:20:26.476Z,22.80
2018-08-23T04:24:28.648Z,22.00
2018-08-23T04:28:30.834Z,22.20
2018-08-23T04:32:38.648Z,22.40
2018-08-23T04:36:40.834Z,22.60
2018-08-23T04:40:52.606Z,22.50
2018-08-23T04:44:54.807Z,22.30
2018-08-23T04:48:57.026Z,22.50
2018-08-23T04:52:59.216Z,22.60
2018-08-23T04:57:01.354Z,22.10
2018-08-23T05:01:03.565Z,22.40
2018-08-23T05:05:05.791Z,22.90
2018-08-23T05:09:08.212Z,23.00
2018-08-23T05:13:10.392Z,23.20
2018-08-23T05:17:12.587Z,23.30
2018-08-23T05:21:14.764Z,23.40
2018-08-23T05:25:16.943Z,23.40
2018-08-23T05:29:19.120Z,23.50
2018-08-23T05:33:22.251Z,23.80
2018-08-23T05:37:24.403Z,24.10
2018-08-23T05:41:26.570Z,24.20
2018-08-23T05:45:34.648Z,24.40
2018-08-23T05:49:36.852Z,24.60
2018-08-23T05:53:40.244Z,25.00
2018-08-23T05:57:42.476Z,25.30
2018-08-23T06:01:45.603Z,25.70
2018-08-23T06:05:48.442Z,26.10
2018-08-23T06:09:50.659Z,26.50
2018-08-23T06:13:52.807Z,26.90
2018-08-23T06:17:54.991Z,27.40
2018-08-23T06:21:57.225Z,27.80
2018-08-23T06:25:59.446Z,28.10
2018-08-23T06:30:01.655Z,28.30
2018-08-23T06:34:03.885Z,28.20
2018-08-23T06:38:07.350Z,28.80
2018-08-23T06:42:09.548Z,29.20
2018-08-23T06:46:11.758Z,29.40
2018-08-23T06:50:13.896Z,30.10
2018-08-23T06:54:16.042Z,30.30
2018-08-23T06:58:18.210Z,29.90
2018-08-23T07:02:20.382Z,30.10
2018-08-23T07:06:22.558Z,28.90
2018-08-23T07:10:24.750Z,27.20
2018-08-23T07:14:26.886Z,27.00
2018-08-23T07:18:30.402Z,28.60
2018-08-23T07:22:33.834Z,29.80
2018-08-23T07:26:36.007Z,31.00
2018-08-23T07:30:38.163Z,31.60
2018-08-23T07:34:45.859Z,32.10
2018-08-23T07:38:48.570Z,33.10
2018-08-23T07:42:52.015Z,33.40
2018-08-23T07:46:54.136Z,33.60
2018-08-23T07:50:56.451Z,33.60
2018-08-23T07:54:59.200Z,33.50
2018-08-23T07:59:01.364Z,32.80
2018-08-23T08:03:03.643Z,32.50
2018-08-23T08:07:09.082Z,32.90
2018-08-23T08:11:11.227Z,32.30
2018-08-23T08:15:13.475Z,31.50
2018-08-23T08:19:15.571Z,31.70
2018-08-23T08:23:17.737Z,32.30
2018-08-23T08:27:20.081Z,32.70
2018-08-23T08:31:22.100Z,32.10
2018-08-23T08:35:24.270Z,31.60
2018-08-23T08:39:26.443Z,31.90
2018-08-23T08:43:28.583Z,31.90
2018-08-23T08:47:31.571Z,31.40
2018-08-23T08:51:33.779Z,31.70
2018-08-23T08:55:36.003Z,32.80
2018-08-23T08:59:39.171Z,33.20
2018-08-23T09:03:41.369Z,33.70
2018-08-23T09:07:44.011Z,33.20
2018-08-23T09:11:46.236Z,33.70
2018-08-23T09:15:49.458Z,33.60
2018-08-23T09:20:02.003Z,33.70
2018-08-23T09:24:23.374Z,34.30
2018-08-23T09:28:25.950Z,34.60
2018-08-23T09:32:29.543Z,33.70
2018-08-23T09:36:31.714Z,34.50
2018-08-23T09:40:33.893Z,35.30
2018-08-23T09:45:12.564Z,35.00
2018-08-23T09:49:14.766Z,33.60
2018-08-23T09:53:22.864Z,34.10
2018-08-23T09:57:25.592Z,35.40
2018-08-23T10:01:33.441Z,34.30
2018-08-23T10:05:46.664Z,33.60
2018-08-23T10:11:57.578Z,33.40
2018-08-23T10:16:05.413Z,33.60
2018-08-23T10:20:13.399Z,33.50
2018-08-23T10:24:21.351Z,34.50
2018-08-23T10:28:25.823Z,33.60
2018-08-23T10:32:28.038Z,33.50
2018-08-23T10:36:30.223Z,34.00
2018-08-23T10:40:32.427Z,34.00
2018-08-23T10:44:34.631Z,34.40
2018-08-23T10:48:36.789Z,34.10
2018-08-23T10:52:39.135Z,34.90
2018-08-23T10:56:42.391Z,35.90
2018-08-23T11:00:44.662Z,35.80
2018-08-23T11:04:46.848Z,34.20
2018-08-23T11:08:54.811Z,33.90
2018-08-23T11:13:02.675Z,33.20
2018-08-23T11:17:10.654Z,33.70
2018-08-23T11:21:15.867Z,33.30
2018-08-23T11:25:18.075Z,34.30
2018-08-23T11:29:21.288Z,34.00
2018-08-23T11:33:23.498Z,34.30
2018-08-23T11:37:25.711Z,34.10
2018-08-23T11:41:27.878Z,35.60
2018-08-23T11:45:30.089Z,35.20
2018-08-23T11:49:32.251Z,34.70
2018-08-23T11:53:34.720Z,34.40
2018-08-23T11:57:36.751Z,35.00
2018-08-23T12:01:39.045Z,34.70
2018-08-23T12:05:41.314Z,34.60
2018-08-23T12:09:43.612Z,34.50
2018-08-23T12:13:47.783Z,34.30
2018-08-23T12:17:51.621Z,34.90
2018-08-23T12:21:54.154Z,35.10
2018-08-23T12:25:56.593Z,34.60
2018-08-23T12:30:01.498Z,34.80
2018-08-23T12:34:06.183Z,36.40
2018-08-23T12:38:17.569Z,37.30
2018-08-23T12:42:25.803Z,37.20
2018-08-23T12:46:28.537Z,37.40
2018-08-23T12:50:30.728Z,36.80
2018-08-23T12:54:32.931Z,36.20
2018-08-23T12:58:35.486Z,37.60
2018-08-23T13:02:37.789Z,39.00
2018-08-23T13:06:39.915Z,39.90
2018-08-23T13:10:42.193Z,41.20
2018-08-23T13:14:44.472Z,40.30
2018-08-23T13:18:46.692Z,39.00
2018-08-23T13:22:48.898Z,38.40
2018-08-23T13:26:51.149Z,39.40
2018-08-23T13:30:53.558Z,37.90
2018-08-23T13:34:56.270Z,39.60
2018-08-23T13:38:58.516Z,38.60
2018-08-23T13:43:00.930Z,37.20
2018-08-23T13:47:03.172Z,35.60
2018-08-23T13:51:06.893Z,37.50
2018-08-23T13:55:09.347Z,38.10
2018-08-23T13:59:11.757Z,40.20
2018-08-23T14:03:13.760Z,38.10
2018-08-23T14:07:16.017Z,37.20
2018-08-23T14:11:18.199Z,35.20
2018-08-23T14:15:26.031Z,34.60
2018-08-23T14:19:28.315Z,37.00
2018-08-23T14:23:30.550Z,36.90
2018-08-23T14:27:32.755Z,35.20
2018-08-23T14:31:35.000Z,35.50
2018-08-23T14:35:37.207Z,35.20
2018-08-23T14:39:39.401Z,35.80
2018-08-23T14:43:41.544Z,35.50
2018-08-23T14:47:49.480Z,35.80
2018-08-23T14:51:51.640Z,36.00
2018-08-23T14:55:59.529Z,36.10
2018-08-23T15:00:01.769Z,36.10
2018-08-23T15:04:03.981Z,37.00
2018-08-23T15:08:06.242Z,37.10
2018-08-23T15:12:08.549Z,36.40
2018-08-23T15:16:10.805Z,37.00
2018-08-23T15:20:12.984Z,37.60
2018-08-23T15:24:15.210Z,37.10
2018-08-23T15:28:17.387Z,37.70
2018-08-23T15:32:19.591Z,35.20
2018-08-23T15:36:21.823Z,34.70
2018-08-23T15:40:24.074Z,35.30
2018-08-23T15:44:26.275Z,36.20
2018-08-23T15:48:28.460Z,35.70
2018-08-23T15:52:30.672Z,36.80
2018-08-23T15:56:32.942Z,34.80
2018-08-23T16:00:37.117Z,36.00
2018-08-23T16:04:39.339Z,35.90
2018-08-23T16:08:47.289Z,35.70
2018-08-23T16:12:49.495Z,35.00
2018-08-23T16:16:57.396Z,35.30
2018-08-23T16:21:00.523Z,34.80
2018-08-23T16:25:02.926Z,34.50
2018-08-23T16:29:05.190Z,33.70
2018-08-23T16:33:07.483Z,34.10
2018-08-23T16:37:09.664Z,34.10
2018-08-23T16:41:11.862Z,33.80
2018-08-23T16:45:14.114Z,33.80
2018-08-23T16:49:16.326Z,35.00
2018-08-23T16:53:18.825Z,34.80
2018-08-23T16:57:21.031Z,35.20
2018-08-23T17:01:23.235Z,34.50
2018-08-23T17:05:25.509Z,34.10
2018-08-23T17:09:27.696Z,34.30
2018-08-23T17:13:36.175Z,34.30
2018-08-23T17:17:38.494Z,33.60
2018-08-23T17:21:40.739Z,32.80
2018-08-23T17:25:42.959Z,33.20
2018-08-23T17:29:45.267Z,33.70
2018-08-23T17:33:47.467Z,33.70
2018-08-23T17:37:49.712Z,33.50
2018-08-23T17:41:51.911Z,34.00
2018-08-23T17:45:54.167Z,33.50
2018-08-23T17:49:56.426Z,33.80
2018-08-23T17:53:58.676Z,33.70
2018-08-23T17:58:00.870Z,33.50
2018-08-23T18:02:03.297Z,32.90
2018-08-23T18:06:05.478Z,32.90
2018-08-23T18:10:07.903Z,32.70
2018-08-23T18:14:10.344Z,33.00
2018-08-23T18:18:12.544Z,32.70
2018-08-23T18:22:14.752Z,32.70
2018-08-23T18:26:16.968Z,32.80
2018-08-23T18:30:19.157Z,32.80
2018-08-23T18:34:21.718Z,32.40
2018-08-23T18:38:24.435Z,32.20
2018-08-23T18:42:26.645Z,32.10
2018-08-23T18:46:28.909Z,31.90
2018-08-23T18:50:31.100Z,31.80
2018-08-23T18:54:33.411Z,31.50
2018-08-23T18:58:35.639Z,31.40
2018-08-23T19:02:37.819Z,31.40
2018-08-23T19:06:40.046Z,31.50
2018-08-23T19:10:42.270Z,31.60
2018-08-23T19:14:44.481Z,31.50
2018-08-23T19:18:46.781Z,29.30
2018-08-23T19:22:48.934Z,26.70
2018-08-23T19:35:12.123Z,20.60
2018-08-23T19:39:14.376Z,21.60
2018-08-23T19:43:16.579Z,21.30
2018-08-23T19:47:24.426Z,22.20
2018-08-23T19:51:26.650Z,23.30
2018-08-23T19:55:28.852Z,23.60
2018-08-23T19:59:31.138Z,23.40
2018-08-23T20:03:33.344Z,23.40
2018-08-23T20:07:35.677Z,23.50
2018-08-23T20:11:37.893Z,24.10
2018-08-23T20:15:40.098Z,24.30
2018-08-23T20:19:42.307Z,24.60
2018-08-23T20:23:44.544Z,24.70
2018-08-23T20:27:46.789Z,24.60
2018-08-23T20:31:49.273Z,24.10
2018-08-23T20:35:51.551Z,24.10
2018-08-23T20:39:53.841Z,24.50
2018-08-23T20:43:56.007Z,24.40
2018-08-23T20:47:58.247Z,24.60
2018-08-23T20:52:00.465Z,24.50
2018-08-23T20:56:02.698Z,24.80
2018-08-23T21:00:05.728Z,24.60
2018-08-23T21:04:08.004Z,24.10
2018-08-23T21:08:10.254Z,24.40
2018-08-23T21:12:12.429Z,24.50
2018-08-23T21:16:14.628Z,24.60
2018-08-23T21:20:17.359Z,24.10
2018-08-23T21:24:19.551Z,23.40
2018-08-23T21:28:21.724Z,24.10
2018-08-23T21:32:23.942Z,24.40
2018-08-23T21:36:26.106Z,23.20
2018-08-23T21:40:28.279Z,24.20
2018-08-23T21:44:30.527Z,23.80
2018-08-23T21:48:32.716Z,23.00
2018-08-23T21:52:34.990Z,24.10
2018-08-23T21:56:37.208Z,23.90
2018-08-23T22:00:45.174Z,23.90
2018-08-23T22:04:54.668Z,24.40
2018-08-23T22:08:56.885Z,24.50
2018-08-23T22:12:59.103Z,24.40
2018-08-23T22:17:01.291Z,24.30
2018-08-23T22:21:03.460Z,24.30
2018-08-23T22:25:05.731Z,23.60
2018-08-23T22:29:07.931Z,23.40
2018-08-23T22:33:11.979Z,23.10
2018-08-23T22:37:14.246Z,23.50
2018-08-23T22:41:16.415Z,24.20
2018-08-23T22:45:18.615Z,24.20
2018-08-23T22:49:21.123Z,24.00
2018-08-23T22:53:23.348Z,24.30
2018-08-23T22:57:25.563Z,23.80
2018-08-23T23:01:27.823Z,23.80
2018-08-23T23:05:30.110Z,24.10
2018-08-23T23:09:32.276Z,24.20
2018-08-23T23:13:34.447Z,23.50
2018-08-23T23:17:36.628Z,22.50
2018-08-23T23:21:38.823Z,22.30
2018-08-23T23:25:40.983Z,22.30
2018-08-23T23:29:43.121Z,22.80
2018-08-23T23:33:46.829Z,22.40
2018-08-23T23:37:49.014Z,21.90
2018-08-23T23:41:51.336Z,22.70
2018-08-23T23:45:54.420Z,22.10
2018-08-23T23:49:56.580Z,22.20
2018-08-23T23:53:58.756Z,22.20
2018-08-23T23:58:00.947Z,22.40
